Time;durP1;ratioP1;P1;durP2;ratioP2;P2;SDS_P1;SDS_P2;PMS_P1;PMS_P2;Temp;Humidity;BMP_temperature;BMP_pressure;BME280_temperature;BME280_humidity;BME280_pressure;Samples;Min_cycle;Max_cycle;Signal;HPM_P1;HPM_P2
2022/08/12 00:44:15;;;;;;;3.33;2.03;;;;;;;19.18;50.62;98728.50;4181304;28;20348;-53
2022/08/12 00:46:32;;;;;;;2.38;2.17;;;;;;;19.16;50.71;98722.44;4179089;28;20207;-55
2022/08/12 00:48:34;;;;;;;5.03;1.85;;;;;;;19.18;50.57;98719.38;4181738;28;20200;-55
2022/08/12 00:50:37;;;;;;;3.38;2.20;;;;;;;19.16;50.57;98724.38;4182148;28;20257;-55
2022/08/12 00:52:39;;;;;;;1.95;1.75;;;;;;;19.14;50.57;98718.31;4186713;28;20265;-54
2022/08/12 00:54:52;;;;;;;3.50;2.60;;;;;;;19.12;50.56;98726.13;4186886;28;20203;-55
2022/08/12 00:56:54;;;;;;;2.45;2.25;;;;;;;19.09;50.60;98724.78;4185502;28;20684;-54
2022/08/12 00:58:56;;;;;;;2.10;2.00;;;;;;;19.07;50.58;98723.41;4186255;28;20669;-54
2022/08/12 01:01:04;;;;;;;3.83;1.80;;;;;;;19.04;50.74;98726.81;4179441;28;20212;-55
2022/08/12 01:03:09;;;;;;;1.70;1.60;;;;;;;18.97;50.88;98724.38;4181039;28;20237;-55
2022/08/12 01:12:17;;;;;;;2.13;1.65;;;;;;;18.78;51.04;98722.72;4186098;28;20219;-54
2022/08/12 01:14:22;;;;;;;2.22;2.13;;;;;;;18.70;51.27;98717.81;4175974;28;20231;-55
2022/08/12 01:16:25;;;;;;;3.10;1.90;;;;;;;18.67;51.44;98723.97;4186047;28;20295;-55
2022/08/12 01:18:33;;;;;;;6.35;2.00;;;;;;;18.62;51.54;98715.72;4186967;28;20211;-54
2022/08/12 01:20:39;;;;;;;2.33;2.13;;;;;;;18.60;51.65;98712.44;4188751;28;20599;-55
2022/08/12 01:22:58;;;;;;;3.05;1.75;;;;;;;18.48;51.96;98714.78;4175265;28;20374;-55
2022/08/12 01:25:09;;;;;;;2.10;1.90;;;;;;;18.36;52.30;98717.16;4201594;28;20242;-55
2022/08/12 01:27:13;;;;;;;2.15;1.95;;;;;;;18.44;52.07;98730.38;4192617;28;20210;-55
2022/08/12 01:29:18;;;;;;;2.92;2.08;;;;;;;18.48;51.92;98725.88;4185246;28;20230;-54
2022/08/12 01:31:21;;;;;;;3.45;2.22;;;;;;;18.53;51.83;98717.50;4182236;28;20265;-54
2022/08/12 01:33:24;;;;;;;2.38;2.17;;;;;;;18.48;51.69;98725.88;4181932;28;20740;-55
2022/08/12 01:35:26;;;;;;;4.32;2.25;;;;;;;18.49;51.67;98733.91;4188580;28;20308;-54
2022/08/12 01:37:29;;;;;;;2.65;2.35;;;;;;;18.51;51.66;98733.63;4170006;28;20212;-54
2022/08/12 01:39:37;;;;;;;12.45;2.10;;;;;;;18.50;51.81;98729.16;4188220;28;20365;-55
2022/08/12 01:42:06;;;;;;;2.30;1.80;;;;;;;18.49;51.74;98733.06;4198105;28;20681;-55
2022/08/12 01:44:08;;;;;;;2.53;1.90;;;;;;;18.46;51.88;98733.69;4192263;28;20231;-56
2022/08/12 01:46:28;;;;;;;2.72;1.90;;;;;;;18.44;52.23;98735.94;4185301;28;21410;-55
2022/08/12 01:48:44;;;;;;;4.25;3.28;;;;;;;18.36;52.27;98733.78;4188169;28;20644;-55
2022/08/12 01:51:01;;;;;;;4.45;2.25;;;;;;;18.29;52.43;98727.72;4185970;28;20665;-54
2022/08/12 01:53:13;;;;;;;3.33;3.03;;;;;;;18.22;52.75;98727.25;4185520;28;20259;-56
2022/08/12 01:55:19;;;;;;;1.92;1.83;;;;;;;18.17;52.88;98724.53;4182832;28;20223;-55
2022/08/12 01:57:38;;;;;;;2.17;2.00;;;;;;;18.17;53.00;98730.06;4188985;28;20207;-55
2022/08/12 02:00:04;;;;;;;2.50;2.30;;;;;;;18.17;52.97;98730.91;4187237;28;20199;-56
2022/08/12 02:02:10;;;;;;;2.53;2.25;;;;;;;18.13;53.11;98723.50;4182001;28;20250;-56
2022/08/12 02:13:23;;;;;;;2.85;2.47;;;;;;;17.93;53.82;98718.16;4178582;28;20227;-56
2022/08/12 02:15:55;;;;;;;2.90;2.22;;;;;;;17.92;53.79;98719.28;4183549;28;20217;-55
2022/08/12 02:18:09;;;;;;;6.97;2.63;;;;;;;17.88;53.76;98723.75;4189411;28;20203;-55
2022/08/12 02:20:23;;;;;;;2.45;2.25;;;;;;;17.85;53.55;98724.34;4186467;28;20203;-55
2022/08/12 02:22:42;;;;;;;3.15;2.47;;;;;;;17.83;53.65;98721.03;4187569;28;20232;-56
2022/08/12 02:24:45;;;;;;;2.22;2.03;;;;;;;17.83;53.52;98723.78;4183687;28;20258;-55
2022/08/12 02:26:48;;;;;;;3.25;2.25;;;;;;;17.82;53.46;98722.16;4184410;28;20203;-56
2022/08/12 02:28:51;;;;;;;2.00;1.90;;;;;;;17.81;53.54;98721.34;4183443;28;20210;-56
2022/08/12 02:30:53;;;;;;;8.35;2.20;;;;;;;17.80;53.60;98724.38;4172268;28;20258;-55
2022/08/12 02:32:55;;;;;;;3.05;1.95;;;;;;;17.81;53.57;98720.50;4183829;28;20257;-54
2022/08/12 02:34:57;;;;;;;3.60;2.53;;;;;;;17.81;53.75;98720.50;4184971;28;20207;-54
2022/08/12 02:37:00;;;;;;;2.65;2.45;;;;;;;17.80;53.76;98713.31;4189015;28;20211;-54
2022/08/12 02:39:08;;;;;;;2.58;2.38;;;;;;;17.75;53.76;98716.13;4185887;28;20294;-54
2022/08/12 02:41:11;;;;;;;3.92;2.10;;;;;;;17.73;54.03;98721.13;4194260;28;20240;-53
2022/08/12 02:43:15;;;;;;;2.60;2.10;;;;;;;17.71;54.32;98723.38;4188748;28;20220;-54
2022/08/12 02:45:21;;;;;;;2.47;2.28;;;;;;;17.70;53.94;98718.94;4186642;28;20620;-54
2022/08/12 02:47:23;;;;;;;2.05;1.95;;;;;;;17.64;54.23;98720.94;4182666;28;20200;-54
2022/08/12 02:49:51;;;;;;;3.03;2.08;;;;;;;17.60;54.16;98724.56;4192155;28;20686;-54
2022/08/12 02:51:53;;;;;;;2.38;2.13;;;;;;;17.54;54.35;98723.81;4186114;28;20269;-53
2022/08/12 02:53:57;;;;;;;2.70;2.40;;;;;;;17.49;54.40;98728.53;4191348;28;20269;-54
2022/08/12 02:56:06;;;;;;;8.40;2.28;;;;;;;17.33;54.25;98725.03;4170884;28;20790;-55
2022/08/12 02:58:08;;;;;;;2.65;2.25;;;;;;;17.37;54.74;98725.31;4186989;28;20605;-54
2022/08/12 03:00:17;;;;;;;3.95;2.40;;;;;;;17.30;54.56;98720.09;4185278;28;20207;-53
2022/08/12 03:02:20;;;;;;;2.28;2.08;;;;;;;17.29;54.63;98723.13;4184946;28;20234;-53
2022/08/12 03:04:43;;;;;;;2.28;2.08;;;;;;;17.22;55.02;98728.16;4181429;28;20210;-54
2022/08/12 03:07:00;;;;;;;3.10;2.80;;;;;;;17.17;55.02;98730.94;4186830;28;20603;-54
2022/08/12 03:09:02;;;;;;;2.30;2.10;;;;;;;17.10;55.43;98720.22;4171941;28;20222;-55
2022/08/12 03:11:12;;;;;;;4.57;2.35;;;;;;;17.11;55.40;98732.13;4186782;28;20207;-54
2022/08/12 03:13:18;;;;;;;2.42;2.22;;;;;;;17.09;55.32;98718.56;4188067;28;20262;-55
2022/08/12 03:15:22;;;;;;;2.67;2.47;;;;;;;17.07;55.44;98731.03;4183390;28;20199;-55
2022/08/12 03:17:42;;;;;;;2.85;2.60;;;;;;;17.08;55.37;98721.63;4186274;28;20213;-54
2022/08/12 03:19:44;;;;;;;5.30;2.60;;;;;;;17.06;55.34;98721.09;4185947;28;20214;-54
2022/08/12 03:22:11;;;;;;;3.22;2.75;;;;;;;16.98;55.70;98726.41;4186177;28;20227;-54
2022/08/12 03:24:16;;;;;;;2.47;2.20;;;;;;;16.94;55.81;98726.13;4182942;28;20207;-55
2022/08/12 03:26:19;;;;;;;2.28;2.08;;;;;;;16.94;56.07;98720.59;4187937;28;20235;-54
2022/08/12 03:30:42;;;;;;;3.33;2.50;;;;;;;16.91;56.01;98725.88;4183418;28;20269;-54
2022/08/12 03:32:46;;;;;;;4.07;2.05;;;;;;;16.90;56.06;98735.28;4167997;28;20227;-54
2022/08/12 03:34:49;;;;;;;3.35;2.60;;;;;;;16.84;56.24;98731.72;4182555;28;20250;-55
2022/08/12 03:36:53;;;;;;;2.58;2.30;;;;;;;16.81;56.31;98732.28;4183787;28;20212;-54
2022/08/12 03:41:34;;;;;;;2.67;2.47;;;;;;;16.73;57.05;98738.44;4185486;28;20200;-54
2022/08/12 04:00:38;;;;;;;4.20;2.47;;;;;;;16.64;56.92;98742.88;4184038;28;20310;-54
2022/08/12 04:02:40;;;;;;;2.65;2.42;;;;;;;16.60;57.21;98757.53;4188134;28;20617;-55
2022/08/12 04:04:46;;;;;;;3.15;2.00;;;;;;;16.63;57.17;98757.81;4185850;28;20258;-55
2022/08/12 04:06:50;;;;;;;2.55;2.25;;;;;;;16.56;57.64;98757.28;4184627;28;20203;-53
2022/08/12 04:08:58;;;;;;;2.83;2.63;;;;;;;16.54;57.33;98756.75;4186342;28;20265;-54
2022/08/12 04:13:24;;;;;;;4.72;2.33;;;;;;;16.51;57.31;98764.78;4181758;28;20254;-54
2022/08/12 04:15:27;;;;;;;2.67;2.45;;;;;;;16.49;57.38;98762.28;4171014;28;20270;-55
2022/08/12 04:17:30;;;;;;;2.00;1.90;;;;;;;16.44;57.58;98759.53;4183428;28;20260;-54
2022/08/12 04:19:32;;;;;;;2.97;2.22;;;;;;;16.40;57.96;98758.47;4190829;28;20207;-55
2022/08/12 04:21:35;;;;;;;5.10;2.67;;;;;;;16.40;57.87;98758.47;4186891;28;20204;-54
2022/08/12 04:23:42;;;;;;;3.67;2.83;;;;;;;16.42;57.76;98761.75;4185716;28;20235;-53
2022/08/12 04:25:49;;;;;;;2.95;2.75;;;;;;;16.43;57.63;98752.34;4172130;28;20224;-53
2022/08/12 04:27:51;;;;;;;4.07;2.75;;;;;;;16.46;57.54;98759.25;4171480;28;20203;-54
2022/08/12 04:29:52;;;;;;;2.30;2.15;;;;;;;16.44;57.49;98759.53;4186090;28;20195;-54
2022/08/12 04:32:14;;;;;;;4.57;2.03;;;;;;;16.43;57.54;98766.16;4186876;28;20227;-54
2022/08/12 04:34:17;;;;;;;3.20;1.80;;;;;;;16.49;57.44;98769.75;4183702;28;20203;-54
2022/08/12 04:36:18;;;;;;;2.60;2.03;;;;;;;16.44;57.30;98759.53;4189894;28;20208;-55
2022/08/12 04:38:22;;;;;;;3.00;1.70;;;;;;;16.44;57.34;98765.06;4189655;28;20243;-55
2022/08/12 04:40:26;;;;;;;3.05;2.72;;;;;;;16.46;57.28;98767.53;4185566;28;20211;-55
2022/08/12 04:42:29;;;;;;;4.65;2.22;;;;;;;16.44;57.44;98769.78;4182708;28;20265;-55
2022/08/12 04:44:31;;;;;;;4.47;2.40;;;;;;;16.45;57.72;98766.75;4186671;28;20286;-54
2022/08/12 04:46:33;;;;;;;11.18;2.92;;;;;;;16.36;58.21;98779.44;4181669;28;20227;-52
2022/08/12 04:48:35;;;;;;;11.68;2.97;;;;;;;16.35;58.15;98775.00;4182231;28;20220;-54
2022/08/12 04:50:38;;;;;;;6.63;3.58;;;;;;;16.36;58.02;98779.44;4185971;28;20216;-54
2022/08/12 04:52:40;;;;;;;25.17;3.65;;;;;;;16.38;57.90;98776.41;4183821;28;20741;-53
2022/08/12 04:54:42;;;;;;;17.83;4.03;;;;;;;16.40;57.86;98775.03;4182627;28;20666;-53
2022/08/12 04:56:44;;;;;;;24.70;4.32;;;;;;;16.42;57.89;98778.34;4183875;28;20208;-54
2022/08/12 04:59:06;;;;;;;27.20;4.90;;;;;;;16.43;57.92;98779.19;4182104;28;20208;-54
2022/08/12 05:01:09;;;;;;;35.53;4.72;;;;;;;16.44;58.07;98778.88;4183796;28;20208;-54
2022/08/12 05:03:11;;;;;;;40.30;6.38;;;;;;;16.47;58.01;98781.09;4186347;28;20234;-55
2022/08/12 05:05:18;;;;;;;22.05;4.43;;;;;;;16.48;57.70;98777.22;4184295;28;20227;-54
2022/08/12 05:07:20;;;;;;;23.20;4.25;;;;;;;16.47;57.87;98781.09;4187226;28;20237;-55
2022/08/12 05:09:21;;;;;;;27.02;4.53;;;;;;;16.46;58.13;98784.97;4185790;28;20681;-55
2022/08/12 05:11:24;;;;;;;48.15;5.35;;;;;;;16.49;58.22;98780.81;4185270;28;20199;-54
2022/08/12 05:13:28;;;;;;;33.28;5.50;;;;;;;16.49;58.17;98784.38;4186690;28;20227;-53
2022/08/12 05:15:30;;;;;;;22.52;3.92;;;;;;;16.53;58.42;98785.50;4180993;28;20266;-54
2022/08/12 05:17:32;;;;;;;16.65;4.03;;;;;;;16.56;58.53;98784.91;4182195;28;20644;-55
2022/08/12 05:19:35;;;;;;;37.97;6.80;;;;;;;16.65;58.50;98777.72;4187322;28;20196;-54
2022/08/12 05:21:38;;;;;;;19.48;3.55;;;;;;;16.80;58.37;98785.09;4191178;28;20619;-54
2022/08/12 05:23:42;;;;;;;12.10;4.22;;;;;;;16.79;58.51;98789.81;4183136;28;20235;-53
2022/08/12 05:25:47;;;;;;;20.73;3.78;;;;;;;16.81;58.36;98789.50;4183160;28;20219;-54
2022/08/12 05:27:49;;;;;;;12.15;5.22;;;;;;;16.93;58.18;98790.84;4184725;28;20200;-53
2022/08/12 05:29:59;;;;;;;14.55;3.67;;;;;;;17.03;57.89;98790.78;4184676;28;20268;-54
2022/08/12 05:32:10;;;;;;;5.82;3.95;;;;;;;17.12;57.78;98791.84;4183093;28;20796;-55
2022/08/12 05:34:13;;;;;;;19.42;2.83;;;;;;;17.13;57.43;98802.59;4182962;28;20231;-54
2022/08/12 05:36:16;;;;;;;11.77;2.95;;;;;;;17.22;57.58;98797.31;4183341;28;20219;-55
2022/08/12 05:40:40;;;;;;;5.00;2.75;;;;;;;17.49;56.35;98806.84;4183320;28;20214;-55
2022/08/12 05:42:42;;;;;;;3.72;2.60;;;;;;;17.57;55.91;98805.41;4184046;28;20223;-55
2022/08/12 05:44:45;;;;;;;2.30;1.83;;;;;;;17.62;56.03;98799.84;4179950;28;20226;-55
2022/08/12 05:46:46;;;;;;;7.57;3.50;;;;;;;17.80;55.41;98807.44;4182435;28;20234;-54
2022/08/12 05:48:50;;;;;;;8.02;2.88;;;;;;;18.12;56.11;98804.94;4185483;28;20949;-54
2022/08/12 05:50:51;;;;;;;7.25;2.05;;;;;;;18.28;55.27;98810.06;4185971;28;20200;-56
2022/08/12 05:52:53;;;;;;;4.55;2.03;;;;;;;18.50;55.57;98802.06;4180596;28;20223;-56
2022/08/12 05:54:55;;;;;;;3.60;2.58;;;;;;;18.65;55.90;98804.66;4184250;28;20622;-56
2022/08/12 05:56:58;;;;;;;2.47;1.77;;;;;;;18.77;55.35;98804.28;4181479;28;20294;-56
2022/08/12 05:59:03;;;;;;;3.92;2.10;;;;;;;18.91;55.72;98808.78;4177540;28;20709;-55
2022/08/12 06:01:04;;;;;;;3.20;1.83;;;;;;;19.22;54.77;98803.69;4200767;28;20267;-54
2022/08/12 06:03:26;;;;;;;2.20;1.85;;;;;;;19.35;53.79;98802.94;4175171;28;20226;-55
2022/08/12 06:05:37;;;;;;;2.30;2.10;;;;;;;19.49;53.63;98798.28;4185953;28;20227;-53
2022/08/12 06:07:56;;;;;;;3.28;1.77;;;;;;;19.57;53.18;98795.69;4182996;28;20699;-53
2022/08/12 06:10:03;;;;;;;3.28;2.22;;;;;;;19.75;53.97;98802.34;4185653;28;20233;-54
2022/08/12 06:12:05;;;;;;;3.20;2.00;;;;;;;19.83;54.08;98810.81;4183051;28;20207;-54
2022/08/12 06:14:07;;;;;;;7.95;2.58;;;;;;;20.03;52.89;98809.63;4169384;28;20211;-54
2022/08/12 06:16:18;;;;;;;3.88;1.77;;;;;;;20.28;51.63;98800.88;4188646;28;20200;-54
2022/08/12 06:18:20;;;;;;;4.68;2.38;;;;;;;20.39;51.31;98803.16;4187709;28;20606;-53
2022/08/12 06:20:21;;;;;;;3.35;1.75;;;;;;;20.47;51.12;98796.09;4187823;28;20207;-53
2022/08/12 06:22:33;;;;;;;2.30;1.90;;;;;;;20.61;51.42;98799.69;4194901;28;20227;-53
2022/08/12 06:24:35;;;;;;;4.88;2.22;;;;;;;20.77;51.50;98789.94;4188089;28;20286;-53
2022/08/12 06:26:37;;;;;;;2.80;1.55;;;;;;;21.00;50.21;98811.19;4175247;28;20232;-54
2022/08/12 06:28:39;;;;;;;7.93;2.03;;;;;;;21.10;50.23;98802.63;4187346;28;20218;-54
2022/08/12 06:30:45;;;;;;;1.67;1.55;;;;;;;21.31;49.20;98806.63;4189180;28;20262;-54
2022/08/12 06:33:07;;;;;;;4.28;1.90;;;;;;;21.17;49.62;98792.69;4176130;28;20803;-55
2022/08/12 06:35:29;;;;;;;4.95;1.67;;;;;;;21.38;49.41;98787.50;4188746;28;20211;-55
2022/08/12 06:37:54;;;;;;;1.70;1.60;;;;;;;21.57;48.69;98802.91;4187415;28;20298;-56
2022/08/12 06:39:58;;;;;;;5.43;1.75;;;;;;;21.79;48.30;98802.16;4184546;28;20235;-55
2022/08/12 06:44:33;;;;;;;3.15;2.13;;;;;;;;;;4185980;28;20210;-53
2022/08/12 06:46:38;;;;;;;2.22;1.50;;;;;;;22.33;47.27;98796.31;4186601;28;20226;-54
2022/08/12 06:48:42;;;;;;;4.25;1.70;;;;;;;22.45;45.99;98796.56;4189395;28;20289;-53
2022/08/12 06:50:45;;;;;;;3.38;2.15;;;;;;;22.63;46.52;98792.75;4187073;28;20264;-53
2022/08/12 06:52:49;;;;;;;5.80;1.88;;;;;;;22.63;45.15;98792.75;4186320;28;20227;-53
2022/08/12 06:54:52;;;;;;;2.45;1.45;;;;;;;22.98;45.34;98795.31;4193104;28;20572;-53
2022/08/12 06:56:54;;;;;;;2.00;1.55;;;;;;;23.13;44.96;98794.06;4191972;28;20207;-55
2022/08/12 06:59:16;;;;;;;1.88;1.60;;;;;;;23.35;44.72;98786.41;4185249;28;20196;-54
2022/08/12 07:01:21;;;;;;;1.60;1.25;;;;;;;23.40;44.13;98786.25;4185227;28;20566;-54
2022/08/12 07:03:27;;;;;;;3.33;2.38;;;;;;;23.52;43.97;98791.19;4191196;28;20712;-53
2022/08/12 07:05:29;;;;;;;2.70;1.60;;;;;;;23.54;44.42;98780.50;4183357;28;20593;-54
2022/08/12 07:07:31;;;;;;;1.90;1.70;;;;;;;23.96;44.23;98776.94;4186381;28;20211;-54
2022/08/12 07:09:33;;;;;;;1.88;1.55;;;;;;;24.02;43.68;98777.25;4169422;28;20707;-53
2022/08/12 07:11:54;;;;;;;2.00;1.55;;;;;;;23.92;42.06;98776.78;4188933;28;20326;-54
2022/08/12 07:13:58;;;;;;;1.92;1.50;;;;;;;24.09;42.46;98776.75;4183554;28;20202;-55
2022/08/12 07:16:16;;;;;;;2.05;1.70;;;;;;;23.92;42.19;98782.38;4185073;28;20199;-55
2022/08/12 07:18:18;;;;;;;2.17;1.60;;;;;;;24.03;41.78;98778.91;4183584;28;20203;-54
2022/08/12 07:20:21;;;;;;;2.03;1.83;;;;;;;24.23;41.89;98772.63;4185310;28;20264;-54
2022/08/12 07:22:42;;;;;;;2.95;2.08;;;;;;;24.50;41.51;98782.56;4195171;28;20279;-55
2022/08/12 07:25:29;;;;;;;1.73;1.60;;;;;;;24.56;40.78;98765.31;4184534;28;20275;-54
2022/08/12 07:27:06;;;;;;;3.50;1.50;;;;;;;24.56;41.04;98770.91;4181984;28;20223;-54
2022/08/12 07:29:10;;;;;;;2.63;1.50;;;;;;;24.74;40.13;98771.66;4185475;28;20218;-54
2022/08/12 07:31:13;;;;;;;3.72;1.85;;;;;;;24.71;39.71;98778.75;4184309;28;20792;-54
2022/08/12 07:33:28;;;;;;;2.55;1.75;;;;;;;24.78;40.08;98773.44;4183603;28;20222;-54
2022/08/12 07:35:32;;;;;;;7.68;2.05;;;;;;;24.96;39.74;98772.22;4168241;28;20211;-54
2022/08/12 07:37:39;;;;;;;5.88;2.00;;;;;;;25.11;39.56;98777.22;4187682;28;20210;-53
2022/08/12 07:39:41;;;;;;;1.70;1.33;;;;;;;24.87;39.16;98777.00;4181025;28;20700;-54
2022/08/12 07:42:00;;;;;;;4.47;1.42;;;;;;;24.85;39.07;98776.53;4182071;28;20253;-55
2022/08/12 07:44:08;;;;;;;7.57;1.50;;;;;;;25.06;38.69;98780.22;4184206;28;20207;-53
2022/08/12 07:46:13;;;;;;;4.50;1.63;;;;;;;25.07;38.87;98781.84;4182400;28;20240;-53
2022/08/12 07:48:15;;;;;;;7.35;1.25;;;;;;;25.22;39.66;98789.69;4197444;28;20202;-61
2022/08/12 07:50:19;;;;;;;1.30;1.20;;;;;;;25.40;38.75;98791.25;4180214;28;20211;-53
2022/08/12 07:52:24;;;;;;;3.83;1.30;;;;;;;25.23;38.28;98788.56;4181657;28;20234;-54
2022/08/12 07:54:26;;;;;;;3.33;1.20;;;;;;;25.31;38.34;98793.28;4177736;28;20203;-53
2022/08/12 07:56:29;;;;;;;1.55;1.05;;;;;;;25.48;38.51;98786.75;4183848;28;20254;-54
2022/08/12 07:58:32;;;;;;;2.63;1.27;;;;;;;25.60;38.40;98787.63;4184389;28;20336;-53
2022/08/12 08:00:39;;;;;;;3.60;1.40;;;;;;;25.24;38.37;98780.97;4181534;28;20200;-53
2022/08/12 08:02:40;;;;;;;2.47;1.20;;;;;;;25.67;38.66;98785.09;4179815;28;20239;-54
2022/08/12 08:04:54;;;;;;;1.60;1.50;;;;;;;25.61;38.24;98774.44;4169106;28;20242;-54
2022/08/12 08:06:59;;;;;;;3.28;1.45;;;;;;;25.75;37.80;98789.03;4183994;28;20219;-54
2022/08/12 08:09:03;;;;;;;2.42;1.42;;;;;;;26.16;38.49;98784.22;4186038;28;20767;-54
2022/08/12 08:13:25;;;;;;;3.28;1.38;;;;;;;26.16;37.45;98787.03;4183981;28;20619;-54
2022/08/12 08:15:34;;;;;;;3.65;1.40;;;;;;;26.12;37.31;98793.69;4165939;28;20214;-54
2022/08/12 08:18:01;;;;;;;1.45;1.25;;;;;;;25.86;37.73;98788.25;4186831;28;20207;-53
2022/08/12 08:20:05;;;;;;;1.90;1.40;;;;;;;26.22;37.21;98796.88;4183744;28;20210;-54
2022/08/12 08:22:09;;;;;;;1.77;1.23;;;;;;;26.66;36.97;98790.47;4171981;28;20242;-54
2022/08/12 08:24:14;;;;;;;4.55;1.10;;;;;;;26.37;36.70;98793.41;4183563;28;20648;-55
2022/08/12 08:26:16;;;;;;;3.10;1.20;;;;;;;26.46;36.48;98782.91;4161200;28;20447;-55
2022/08/12 08:28:20;;;;;;;3.83;1.40;;;;;;;26.52;36.47;98792.75;4185532;28;20200;-54
2022/08/12 08:30:22;;;;;;;4.20;1.00;;;;;;;26.85;36.15;98799.16;4183300;28;20720;-55
2022/08/12 08:32:24;;;;;;;1.40;1.30;;;;;;;26.65;36.94;98800.06;4191161;28;20227;-54
2022/08/12 08:34:30;;;;;;;2.65;1.20;;;;;;;27.10;35.95;98786.78;4186029;28;20207;-54
2022/08/12 08:36:52;;;;;;;6.47;1.27;;;;;;;26.43;36.20;98796.81;4188548;28;20660;-54
2022/08/12 08:38:53;;;;;;;2.97;1.17;;;;;;;26.43;36.70;98792.03;4187317;28;20211;-54
2022/08/12 08:43:40;;;;;;;2.05;1.45;;;;;;;26.55;36.19;98792.09;4188043;28;20226;-54
2022/08/12 08:45:48;;;;;;;10.00;1.20;;;;;;;26.82;35.33;98794.25;4172183;28;20658;-53
2022/08/12 08:47:50;;;;;;;2.13;1.40;;;;;;;26.63;36.08;98796.81;4188850;28;20198;-54
2022/08/12 08:49:53;;;;;;;1.73;1.33;;;;;;;27.17;35.84;98798.28;4187648;28;20633;-53
2022/08/12 08:51:55;;;;;;;2.40;1.05;;;;;;;27.24;35.47;98790.09;4181810;28;20215;-55
2022/08/12 08:53:59;;;;;;;2.03;1.10;;;;;;;26.93;35.54;98795.41;4186106;28;20719;-54
2022/08/12 08:56:01;;;;;;;1.23;1.00;;;;;;;26.80;35.93;98788.16;4199695;28;20271;-53
2022/08/12 08:58:07;;;;;;;2.92;1.15;;;;;;;27.50;35.48;98784.91;4188337;28;20217;-53
2022/08/12 09:00:18;;;;;;;4.50;1.60;;;;;;;27.46;35.46;98781.16;4184102;28;20603;-55
2022/08/12 09:02:19;;;;;;;1.55;1.15;;;;;;;27.62;35.15;98772.81;4186094;28;20219;-54
2022/08/12 09:04:24;;;;;;;3.35;1.35;;;;;;;27.47;35.18;98777.16;4181539;28;20235;-53
2022/08/12 09:06:46;;;;;;;2.20;1.02;;;;;;;27.62;35.43;98772.81;4185334;28;20219;-53
2022/08/12 09:08:56;;;;;;;10.73;1.50;;;;;;;27.77;35.29;98770.09;4172266;28;20203;-54
2022/08/12 09:13:26;;;;;;;1.40;1.30;;;;;;;27.85;34.68;98766.31;4189525;28;20199;-54
2022/08/12 09:13:43;;;;;;;2.67;1.25;;;;;;;27.95;34.20;98774.28;4184096;28;20280;-53
2022/08/12 09:16:07;;;;;;;1.98;1.20;;;;;;;27.81;33.40;98775.84;4191470;28;20545;-55
2022/08/12 09:18:10;;;;;;;4.53;1.75;;;;;;;27.53;34.05;98781.38;4185619;28;20202;-54
2022/08/12 09:20:14;;;;;;;2.17;1.20;;;;;;;27.68;34.11;98771.38;4182266;28;20277;-53
2022/08/12 09:22:17;;;;;;;1.45;1.30;;;;;;;27.74;33.82;98764.34;4189501;28;20574;-54
2022/08/12 09:24:21;;;;;;;3.28;1.45;;;;;;;27.38;33.75;98776.47;4187503;28;20203;-54
2022/08/12 09:26:31;;;;;;;2.83;1.10;;;;;;;27.54;33.54;98771.78;4183244;28;20211;-53
2022/08/12 09:28:53;;;;;;;2.25;0.95;;;;;;;27.73;33.61;98762.72;4187632;28;20256;-54
2022/08/12 09:30:58;;;;;;;2.25;1.10;;;;;;;27.79;32.77;98762.13;4186594;28;20277;-54
2022/08/12 09:33:00;;;;;;;5.65;1.20;;;;;;;27.65;33.40;98758.84;4190054;28;20214;-54
2022/08/12 09:35:19;;;;;;;4.35;2.22;;;;;;;27.73;33.20;98762.72;4188006;28;20253;-53
2022/08/12 09:37:29;;;;;;;5.72;1.73;;;;;;;27.36;33.94;98759.16;4176063;28;20709;-54
2022/08/12 09:39:52;;;;;;;3.95;1.50;;;;;;;27.84;32.98;98742.19;4174324;28;20562;-53
2022/08/12 09:47:21;;;;;;;1.20;1.10;;;;;;;28.80;32.51;98749.31;4187602;28;20229;-53
2022/08/12 09:49:32;;;;;;;6.25;1.50;;;;;;;29.22;32.14;98748.41;4187622;28;20222;-55
2022/08/12 09:51:42;;;;;;;7.57;1.35;;;;;;;29.21;31.36;98752.41;4174454;28;21234;-53
2022/08/12 09:53:45;;;;;;;1.67;0.95;;;;;;;29.05;29.86;98743.13;4185277;28;20235;-55
2022/08/12 09:56:16;;;;;;;3.67;1.08;;;;;;;28.96;30.16;98733.22;4186069;28;20207;-54
2022/08/12 09:58:40;;;;;;;5.75;1.65;;;;;;;29.74;30.71;98736.72;4186503;28;20690;-55
2022/08/12 10:01:03;;;;;;;3.60;1.30;;;;;;;29.36;31.77;98731.81;4187650;28;21109;-53
2022/08/12 10:03:15;;;;;;;14.38;2.30;;;;;;;29.05;31.19;98726.22;4184761;28;20231;-54
2022/08/12 10:05:35;;;;;;;6.85;1.67;;;;;;;29.84;31.58;98719.22;4188408;28;20703;-55
2022/08/12 10:07:57;;;;;;;1.67;1.10;;;;;;;29.76;30.49;98718.22;4177874;28;20222;-54
2022/08/12 10:09:58;;;;;;;3.00;1.20;;;;;;;28.57;31.12;98709.66;4183844;28;20203;-60
2022/08/12 10:14:33;;;;;;;7.20;1.77;;;;;;;29.10;31.46;98711.84;4183824;28;20231;-59
2022/08/12 10:16:42;;;;;;;1.52;1.38;;;;;;;29.04;30.96;98716.13;4187616;28;20249;-58
2022/08/12 10:18:49;;;;;;;1.98;1.05;;;;;;;29.39;30.53;98697.22;4191277;28;20756;-57
2022/08/12 10:20:52;;;;;;;3.63;0.80;;;;;;;29.28;29.99;98696.19;4186068;28;20219;-57
2022/08/12 10:22:56;;;;;;;0.93;0.85;;;;;;;28.54;30.16;98699.16;4194195;28;20241;-56
2022/08/12 10:29:59;;;;;;;2.17;1.23;;;;;;;29.63;29.70;98713.91;4182912;28;20217;-57
2022/08/12 10:32:22;;;;;;;2.65;1.20;;;;;;;30.30;30.33;98704.84;4177868;28;20269;-56
2022/08/12 10:34:44;;;;;;;1.25;1.10;;;;;;;30.19;29.05;98715.09;4186633;28;20213;-56
2022/08/12 10:36:59;;;;;;;1.90;1.05;;;;;;;29.64;29.77;98703.47;4182467;28;20199;-55
2022/08/12 10:39:21;;;;;;;1.40;1.13;;;;;;;28.96;30.58;98705.03;4182279;28;20688;-57
2022/08/12 10:44:04;;;;;;;3.75;0.98;;;;;;;29.95;30.27;98692.84;4183578;28;20221;-57
2022/08/12 10:46:08;;;;;;;1.05;0.95;;;;;;;29.94;29.83;98691.19;4167695;28;20303;-57
2022/08/12 10:48:14;;;;;;;4.68;1.20;;;;;;;29.76;30.45;98692.84;4179446;28;20221;-55
2022/08/12 10:50:27;;;;;;;3.95;1.20;;;;;;;30.50;31.65;98681.00;4184979;28;20198;-57
2022/08/12 10:52:49;;;;;;;3.50;0.90;;;;;;;30.35;29.50;98687.59;4185160;28;20219;-58
2022/08/12 10:54:54;;;;;;;1.52;0.95;;;;;;;29.79;29.72;98677.97;4189237;28;20202;-56
2022/08/12 10:56:59;;;;;;;3.17;1.05;;;;;;;29.56;29.53;98691.19;4188881;28;20302;-55
2022/08/12 10:59:03;;;;;;;1.23;1.10;;;;;;;28.84;30.67;98669.31;4183569;28;21173;-56
2022/08/12 11:01:09;;;;;;;6.50;1.17;;;;;;;28.97;30.82;98676.50;4185028;28;20249;-56
2022/08/12 11:03:37;;;;;;;2.45;1.20;;;;;;;29.35;29.82;98673.78;4172879;28;20231;-56
2022/08/12 11:05:59;;;;;;;0.82;0.82;;;;;;;29.41;30.20;98669.47;4187517;28;20203;-57
2022/08/12 11:08:21;;;;;;;2.47;0.98;;;;;;;29.48;30.77;98671.63;4182790;28;20732;-58
2022/08/12 11:10:39;;;;;;;1.85;1.20;;;;;;;30.22;30.26;98669.19;4187219;28;20206;-56
2022/08/12 11:12:46;;;;;;;1.40;1.30;;;;;;;30.22;29.37;98669.19;4189118;28;21201;-57
2022/08/12 11:15:00;;;;;;;2.90;1.42;;;;;;;29.21;30.65;98667.81;4180589;28;20627;-55
2022/08/12 11:17:22;;;;;;;2.22;1.42;;;;;;;29.63;30.85;98657.47;4184482;28;20200;-57
2022/08/12 11:19:46;;;;;;;8.80;2.13;;;;;;;29.50;30.35;98664.41;4190455;28;20242;-55
2022/08/12 11:21:48;;;;;;;2.50;1.63;;;;;;;30.18;29.98;98662.66;4192353;28;20215;-56
2022/08/12 11:23:59;;;;;;;3.53;1.20;;;;;;;30.61;29.64;98664.22;4189657;28;20206;-57
2022/08/12 11:26:03;;;;;;;2.03;1.00;;;;;;;30.37;29.23;98656.94;4182708;28;20218;-57
2022/08/12 11:28:07;;;;;;;2.65;0.98;;;;;;;30.59;29.19;98658.94;4166256;28;20227;-57
2022/08/12 11:30:14;;;;;;;3.08;1.30;;;;;;;30.59;29.10;98653.28;4180416;28;20244;-57
2022/08/12 11:32:32;;;;;;;6.00;1.20;;;;;;;30.76;29.18;98660.47;4182860;28;20319;-57
2022/08/12 11:34:39;;;;;;;3.38;1.00;;;;;;;30.99;28.60;98647.91;4180484;28;20199;-57
2022/08/12 11:37:01;;;;;;;3.83;1.20;;;;;;;31.01;28.28;98648.38;4168034;28;20216;-58
2022/08/12 11:39:05;;;;;;;2.25;0.98;;;;;;;31.14;27.74;98655.44;4184797;28;20219;-55
2022/08/12 11:41:07;;;;;;;5.18;0.90;;;;;;;31.62;27.25;98646.03;4182303;28;20326;-58
2022/08/12 11:43:09;;;;;;;1.70;1.05;;;;;;;30.73;27.59;98649.94;4180222;28;20236;-56
2022/08/12 11:45:20;;;;;;;2.72;1.23;;;;;;;30.31;27.67;98644.31;4183445;28;20648;-64
2022/08/12 11:47:23;;;;;;;3.10;1.08;;;;;;;30.59;28.24;98633.50;4183227;28;20264;-53
2022/08/12 11:49:27;;;;;;;2.88;1.33;;;;;;;30.93;27.26;98649.47;4190376;28;20195;-52
2022/08/12 11:51:34;;;;;;;4.85;0.75;;;;;;;31.22;27.49;98640.22;4190829;28;20215;-53